Time;durP1;ratioP1;P1;durP2;ratioP2;P2;SDS_P1;SDS_P2;PMS_P1;PMS_P2;Temp;Humidity;BMP_temperature;BMP_pressure;BME280_temperature;BME280_humidity;BME280_pressure;Samples;Min_cycle;Max_cycle;Signal;HPM_P1;HPM_P2
2021/09/06 00:01:36;;;;;;;2.10;1.30;;;17.80;99.90;;;;;;5093037;28;20422;-59
2021/09/06 00:04:04;;;;;;;3.33;1.40;;;17.80;99.90;;;;;;5093265;28;20684;-59
2021/09/06 00:06:32;;;;;;;1.52;1.20;;;17.80;99.90;;;;;;5092963;28;20418;-59
2021/09/06 00:08:59;;;;;;;1.60;1.20;;;17.80;99.90;;;;;;5093301;28;20422;-59
2021/09/06 00:11:26;;;;;;;1.70;1.20;;;17.90;99.90;;;;;;5094090;28;20433;-59
2021/09/06 00:13:53;;;;;;;3.00;1.20;;;17.80;99.90;;;;;;5094039;28;20426;-59
2021/09/06 00:16:20;;;;;;;2.13;1.50;;;17.80;99.90;;;;;;5093140;28;20424;-59
2021/09/06 00:18:46;;;;;;;2.33;1.30;;;17.90;99.90;;;;;;5094023;28;20429;-59
2021/09/06 00:21:15;;;;;;;2.45;1.30;;;17.80;99.90;;;;;;5092346;28;20877;-59
2021/09/06 00:23:42;;;;;;;2.10;1.30;;;17.80;99.90;;;;;;5092242;28;20829;-60
2021/09/06 00:26:09;;;;;;;2.30;1.30;;;17.90;99.90;;;;;;5095875;28;20414;-59
2021/09/06 00:28:36;;;;;;;1.70;1.25;;;17.90;99.90;;;;;;5097463;28;20882;-59
2021/09/06 00:31:03;;;;;;;2.10;1.30;;;17.80;99.90;;;;;;5096937;28;20433;-59
2021/09/06 00:33:30;;;;;;;2.40;1.20;;;17.90;99.90;;;;;;5097286;28;20437;-58
2021/09/06 00:35:58;;;;;;;1.70;1.27;;;17.80;99.90;;;;;;5097287;28;20424;-59
2021/09/06 00:38:26;;;;;;;1.70;1.20;;;17.80;99.90;;;;;;5095388;28;20430;-59
2021/09/06 00:40:53;;;;;;;2.20;1.40;;;17.80;99.90;;;;;;5095383;28;20418;-58
2021/09/06 00:43:20;;;;;;;2.70;2.00;;;17.80;99.90;;;;;;5094803;28;20410;-58
2021/09/06 00:45:47;;;;;;;2.17;1.30;;;17.80;99.90;;;;;;5095404;28;20733;-58
2021/09/06 00:48:17;;;;;;;1.60;1.20;;;17.80;99.90;;;;;;5094931;28;20409;-58
2021/09/06 00:50:44;;;;;;;3.70;1.30;;;17.70;99.90;;;;;;5094684;28;20429;-59
2021/09/06 00:53:11;;;;;;;2.90;1.40;;;17.60;99.90;;;;;;5095519;28;20424;-58
2021/09/06 00:55:40;;;;;;;1.70;1.40;;;17.60;99.90;;;;;;5097630;28;20840;-58
2021/09/06 00:58:07;;;;;;;2.20;1.30;;;17.50;99.90;;;;;;5098346;28;20428;-58
2021/09/06 01:00:33;;;;;;;2.30;1.27;;;17.40;99.90;;;;;;5097975;28;20410;-59
2021/09/06 01:03:00;;;;;;;3.50;1.38;;;17.30;99.90;;;;;;5098059;28;20416;-59
2021/09/06 01:05:27;;;;;;;1.80;1.20;;;17.30;99.90;;;;;;5098101;28;20724;-58
2021/09/06 01:07:54;;;;;;;2.57;1.50;;;17.40;99.90;;;;;;5098187;28;20832;-58
2021/09/06 01:10:21;;;;;;;2.60;1.30;;;17.40;99.90;;;;;;5097462;28;20469;-59
2021/09/06 01:12:50;;;;;;;1.60;1.20;;;17.40;99.90;;;;;;5098403;28;20418;-59
2021/09/06 01:15:17;;;;;;;2.30;1.35;;;17.40;99.90;;;;;;5098228;28;20432;-58
2021/09/06 01:17:44;;;;;;;1.70;1.40;;;17.30;99.90;;;;;;5098011;28;20426;-58
2021/09/06 01:20:12;;;;;;;2.10;1.30;;;17.30;99.90;;;;;;5098139;28;20707;-59
2021/09/06 01:22:39;;;;;;;4.00;1.40;;;17.20;99.90;;;;;;5096002;28;20418;-58
2021/09/06 01:25:07;;;;;;;2.65;1.67;;;17.20;99.90;;;;;;5098002;28;20421;-58
2021/09/06 01:27:35;;;;;;;2.20;1.30;;;17.20;99.90;;;;;;5097971;28;20418;-59
2021/09/06 01:30:03;;;;;;;1.90;1.30;;;17.20;99.90;;;;;;5096973;28;20520;-58
2021/09/06 01:32:30;;;;;;;1.70;1.20;;;17.10;99.90;;;;;;5096656;28;20444;-58
2021/09/06 01:34:57;;;;;;;2.40;1.40;;;17.00;99.90;;;;;;5097029;28;20469;-58
2021/09/06 01:37:23;;;;;;;2.10;1.70;;;17.00;99.90;;;;;;5096639;28;20418;-59
2021/09/06 01:39:50;;;;;;;2.03;1.27;;;16.90;99.90;;;;;;5096274;28;20706;-58
2021/09/06 01:42:17;;;;;;;1.75;1.20;;;16.90;99.90;;;;;;5094990;28;20421;-60
2021/09/06 01:44:45;;;;;;;1.67;1.20;;;16.80;99.90;;;;;;5095437;28;20417;-58
2021/09/06 01:47:12;;;;;;;1.75;1.30;;;16.90;99.90;;;;;;5094912;28;20513;-58
2021/09/06 01:49:39;;;;;;;2.72;1.30;;;16.90;99.90;;;;;;5096453;28;20414;-58
2021/09/06 01:52:06;;;;;;;1.73;1.30;;;16.80;99.90;;;;;;5096777;28;20429;-59
2021/09/06 01:54:33;;;;;;;3.10;1.40;;;16.80;99.90;;;;;;5095457;28;20856;-58
2021/09/06 01:57:00;;;;;;;1.70;1.40;;;16.80;99.90;;;;;;5094948;28;20418;-58
2021/09/06 01:59:27;;;;;;;1.70;1.30;;;16.80;99.90;;;;;;5095144;28;20432;-59
2021/09/06 02:01:55;;;;;;;1.70;1.20;;;16.70;99.90;;;;;;5095074;28;20418;-58
2021/09/06 02:04:22;;;;;;;1.50;1.20;;;16.70;99.90;;;;;;5095295;28;20790;-58
2021/09/06 02:06:49;;;;;;;1.92;1.27;;;16.60;99.90;;;;;;5095370;28;20422;-59
2021/09/06 02:09:16;;;;;;;1.90;1.40;;;16.60;99.90;;;;;;5095544;28;20512;-58
2021/09/06 02:11:43;;;;;;;2.40;1.20;;;16.60;99.90;;;;;;5095980;28;20436;-58
2021/09/06 02:14:10;;;;;;;2.33;1.20;;;16.60;99.90;;;;;;5096254;28;20485;-58
2021/09/06 02:16:37;;;;;;;1.70;1.40;;;16.60;99.90;;;;;;5095913;28;20852;-58
2021/09/06 02:19:05;;;;;;;1.92;1.40;;;16.60;99.90;;;;;;5094793;28;20417;-58
2021/09/06 02:21:32;;;;;;;2.70;1.60;;;16.60;99.90;;;;;;5092937;28;20418;-57
2021/09/06 02:24:02;;;;;;;2.05;1.27;;;16.60;99.90;;;;;;5094784;28;20426;-58
2021/09/06 02:26:29;;;;;;;2.30;1.60;;;16.60;99.90;;;;;;5093345;28;20734;-58
2021/09/06 02:28:56;;;;;;;2.47;1.42;;;16.50;99.90;;;;;;5093299;28;20426;-58
2021/09/06 02:31:22;;;;;;;3.35;1.50;;;16.50;99.90;;;;;;5093124;28;20861;-58
2021/09/06 02:33:49;;;;;;;1.70;1.30;;;16.50;99.90;;;;;;5093972;28;20442;-58
2021/09/06 02:36:19;;;;;;;1.77;1.23;;;16.40;99.90;;;;;;5094948;28;20414;-59
2021/09/06 02:38:46;;;;;;;2.28;1.55;;;16.40;99.90;;;;;;5095564;28;20430;-58
2021/09/06 02:41:13;;;;;;;2.08;1.60;;;16.30;99.90;;;;;;5094701;28;20501;-58
2021/09/06 02:43:41;;;;;;;2.95;1.50;;;16.30;99.90;;;;;;5095227;28;20425;-58
2021/09/06 02:46:08;;;;;;;2.10;1.35;;;16.20;99.90;;;;;;5094097;28;20588;-59
2021/09/06 02:48:35;;;;;;;2.00;1.40;;;16.20;99.90;;;;;;5093709;28;20436;-59
2021/09/06 02:51:02;;;;;;;1.90;1.40;;;16.10;99.90;;;;;;5095462;28;20417;-59
2021/09/06 02:53:30;;;;;;;1.80;1.30;;;16.10;99.90;;;;;;5095086;28;20470;-59
2021/09/06 02:55:57;;;;;;;2.07;1.37;;;16.20;99.90;;;;;;5095460;28;20418;-58
2021/09/06 02:58:24;;;;;;;3.30;1.40;;;16.20;99.90;;;;;;5094284;28;20432;-59
2021/09/06 03:00:51;;;;;;;3.80;1.90;;;16.20;99.90;;;;;;5094159;28;20714;-58
2021/09/06 03:03:18;;;;;;;3.30;1.30;;;16.30;99.90;;;;;;5092715;28;20421;-58
2021/09/06 03:05:45;;;;;;;1.85;1.38;;;16.30;99.90;;;;;;5093405;28;20837;-58
2021/09/06 03:08:12;;;;;;;2.20;1.50;;;16.20;99.90;;;;;;5092379;28;20418;-58
2021/09/06 03:10:40;;;;;;;2.42;1.50;;;16.20;99.90;;;;;;5093422;28;20413;-58
2021/09/06 03:13:07;;;;;;;1.85;1.25;;;16.20;99.90;;;;;;5091646;28;20436;-59
2021/09/06 03:15:33;;;;;;;1.60;1.30;;;16.20;99.90;;;;;;5092420;28;20418;-58
2021/09/06 03:18:01;;;;;;;1.70;1.23;;;16.10;99.90;;;;;;5092989;28;20436;-59
2021/09/06 03:20:27;;;;;;;2.30;1.60;;;16.10;99.90;;;;;;5093124;28;20417;-58
2021/09/06 03:22:54;;;;;;;2.50;1.40;;;16.10;99.90;;;;;;5090922;28;20585;-59
2021/09/06 03:25:21;;;;;;;2.45;1.40;;;16.10;99.90;;;;;;5092904;28;20867;-58
2021/09/06 03:27:49;;;;;;;1.70;1.30;;;16.10;99.90;;;;;;5093861;28;20425;-58
2021/09/06 03:30:16;;;;;;;1.63;1.30;;;16.10;99.90;;;;;;5094550;28;20436;-58
2021/09/06 03:32:43;;;;;;;2.67;1.57;;;16.20;99.90;;;;;;5094250;28;20429;-58
2021/09/06 03:35:14;;;;;;;2.58;1.70;;;16.10;99.90;;;;;;5094837;28;20426;-58
2021/09/06 03:37:41;;;;;;;2.20;1.50;;;16.10;99.90;;;;;;5094573;28;20436;-58
2021/09/06 03:40:09;;;;;;;1.95;1.60;;;16.10;99.90;;;;;;5094483;28;20426;-58
2021/09/06 03:42:36;;;;;;;1.90;1.40;;;16.10;99.90;;;;;;5094930;28;20414;-60
2021/09/06 03:45:04;;;;;;;2.50;1.58;;;16.10;99.90;;;;;;5095627;28;20798;-58
2021/09/06 03:47:32;;;;;;;3.20;1.50;;;16.10;99.90;;;;;;5095583;28;20829;-57
2021/09/06 03:49:59;;;;;;;2.63;1.30;;;16.00;99.90;;;;;;5094925;28;20426;-58
2021/09/06 03:52:26;;;;;;;1.77;1.30;;;16.00;99.90;;;;;;5094941;28;20525;-58
2021/09/06 03:54:53;;;;;;;2.17;1.40;;;16.00;99.90;;;;;;5093622;28;20422;-58
2021/09/06 03:57:20;;;;;;;2.33;1.50;;;16.00;99.90;;;;;;5093795;28;20436;-58
2021/09/06 03:59:46;;;;;;;1.98;1.60;;;16.00;99.90;;;;;;5092913;28;20428;-58
2021/09/06 04:02:15;;;;;;;3.00;1.40;;;16.00;99.90;;;;;;5093373;28;20513;-58
2021/09/06 04:04:41;;;;;;;1.95;1.30;;;15.90;99.90;;;;;;5093748;28;20468;-59
2021/09/06 04:07:09;;;;;;;3.17;1.40;;;15.90;99.90;;;;;;5093939;28;20430;-60
2021/09/06 04:09:36;;;;;;;2.13;1.50;;;15.80;99.90;;;;;;5094714;28;20421;-59
2021/09/06 04:12:04;;;;;;;1.90;1.30;;;15.70;99.90;;;;;;5092997;28;20425;-59
2021/09/06 04:14:33;;;;;;;2.10;1.50;;;15.60;99.90;;;;;;5093456;28;20718;-59
2021/09/06 04:17:00;;;;;;;1.90;1.30;;;15.50;99.90;;;;;;5092950;28;20418;-59
2021/09/06 04:19:31;;;;;;;2.33;1.40;;;15.50;99.90;;;;;;5093080;28;20434;-59
2021/09/06 04:21:58;;;;;;;2.50;1.40;;;15.50;99.90;;;;;;5089702;28;20418;-59
2021/09/06 04:24:24;;;;;;;2.08;1.42;;;15.40;99.90;;;;;;5091087;28;20426;-58
2021/09/06 04:26:52;;;;;;;2.67;1.55;;;15.50;99.90;;;;;;5091056;28;20455;-59
2021/09/06 04:29:18;;;;;;;2.93;1.50;;;15.50;99.90;;;;;;5090781;28;20713;-59
2021/09/06 04:31:45;;;;;;;2.15;1.42;;;15.40;99.90;;;;;;5090239;28;20432;-59
2021/09/06 04:34:12;;;;;;;2.55;1.70;;;15.40;99.90;;;;;;5089987;28;20426;-58
2021/09/06 04:36:41;;;;;;;2.28;1.50;;;15.40;99.90;;;;;;5091936;28;20414;-59
2021/09/06 04:39:08;;;;;;;2.30;1.48;;;15.50;99.90;;;;;;5092710;28;20738;-59
2021/09/06 04:41:35;;;;;;;2.30;1.42;;;15.50;99.90;;;;;;5093345;28;20860;-59
2021/09/06 04:44:02;;;;;;;3.60;1.60;;;15.50;99.90;;;;;;5094249;28;20840;-59
2021/09/06 04:46:29;;;;;;;2.53;1.60;;;15.60;99.90;;;;;;5092125;28;20512;-58
2021/09/06 04:48:56;;;;;;;2.30;1.80;;;15.60;99.90;;;;;;5092778;28;20428;-58
2021/09/06 04:51:23;;;;;;;2.20;1.60;;;15.70;99.90;;;;;;5093311;28;20432;-59
2021/09/06 04:53:52;;;;;;;2.17;1.77;;;15.80;99.90;;;;;;5092096;28;20553;-59
2021/09/06 04:56:22;;;;;;;2.80;1.50;;;15.80;99.90;;;;;;5093475;28;20429;-59
2021/09/06 04:58:49;;;;;;;3.08;1.90;;;15.80;99.90;;;;;;5092522;28;20524;-59
2021/09/06 05:01:16;;;;;;;2.22;1.50;;;15.80;99.90;;;;;;5093615;28;20424;-59
2021/09/06 05:03:43;;;;;;;3.70;1.60;;;15.70;99.90;;;;;;5092844;28;20414;-59
2021/09/06 05:06:10;;;;;;;2.10;1.60;;;15.80;99.90;;;;;;5091928;28;20422;-59
2021/09/06 05:08:37;;;;;;;2.45;1.60;;;16.00;99.90;;;;;;5092161;28;20429;-59
2021/09/06 05:11:05;;;;;;;3.20;1.70;;;15.90;99.90;;;;;;5093998;28;20789;-59
2021/09/06 05:13:32;;;;;;;4.00;1.60;;;15.90;99.90;;;;;;5095920;28;20768;-59
2021/09/06 05:15:59;;;;;;;2.30;1.50;;;15.80;99.90;;;;;;5096663;28;20426;-58
2021/09/06 05:18:26;;;;;;;2.25;1.60;;;16.00;99.90;;;;;;5096040;28;20651;-58
2021/09/06 05:20:54;;;;;;;2.70;1.50;;;16.10;99.90;;;;;;5097886;28;20472;-59
2021/09/06 05:23:20;;;;;;;2.85;1.92;;;16.10;99.90;;;;;;5095854;28;20418;-58
2021/09/06 05:25:48;;;;;;;2.50;1.70;;;16.10;99.90;;;;;;5097314;28;20424;-59
2021/09/06 05:28:16;;;;;;;3.00;1.77;;;16.10;99.90;;;;;;5096414;28;20487;-58
2021/09/06 05:30:43;;;;;;;2.30;1.52;;;16.20;99.90;;;;;;5095415;28;20709;-58
2021/09/06 05:33:10;;;;;;;2.22;1.30;;;16.30;99.90;;;;;;5094540;28;20525;-59
2021/09/06 05:35:37;;;;;;;2.85;1.70;;;16.30;99.90;;;;;;5094098;28;20905;-59
2021/09/06 05:38:04;;;;;;;3.80;2.10;;;16.30;99.90;;;;;;5093471;28;20417;-60
2021/09/06 05:40:31;;;;;;;2.90;1.70;;;16.30;99.90;;;;;;5091129;28;20713;-59
2021/09/06 05:42:58;;;;;;;2.42;1.50;;;16.30;99.90;;;;;;5091381;28;20868;-59
2021/09/06 05:45:26;;;;;;;3.10;2.17;;;16.30;99.90;;;;;;5093387;28;20441;-59
2021/09/06 05:47:53;;;;;;;4.03;1.75;;;16.30;99.90;;;;;;5094675;28;20420;-60
2021/09/06 05:50:20;;;;;;;3.38;1.85;;;16.40;99.90;;;;;;5094564;28;20434;-59
2021/09/06 05:52:48;;;;;;;2.55;2.00;;;16.40;99.90;;;;;;5094098;28;20663;-59
2021/09/06 05:55:15;;;;;;;2.13;1.90;;;16.40;99.90;;;;;;5095538;28;20432;-59
2021/09/06 05:57:42;;;;;;;2.55;2.20;;;16.40;99.90;;;;;;5096866;28;20501;-59
2021/09/06 06:00:09;;;;;;;3.20;2.70;;;16.20;99.90;;;;;;5093850;28;20456;-59
2021/09/06 06:02:38;;;;;;;3.90;2.60;;;16.10;99.90;;;;;;5094295;28;20420;-57
2021/09/06 06:05:06;;;;;;;2.75;1.88;;;16.00;99.90;;;;;;5095512;28;20436;-58
2021/09/06 06:07:33;;;;;;;2.60;2.10;;;15.90;99.90;;;;;;5091240;28;20420;-58
2021/09/06 06:10:00;;;;;;;3.45;2.00;;;15.90;99.90;;;;;;5094161;28;20461;-57
2021/09/06 06:12:28;;;;;;;4.40;1.98;;;15.90;99.90;;;;;;5094679;28;20437;-58
2021/09/06 06:14:56;;;;;;;3.20;2.20;;;16.10;99.90;;;;;;5096127;28;20431;-60
2021/09/06 06:17:22;;;;;;;3.67;2.58;;;16.20;99.90;;;;;;5094470;28;20422;-57
2021/09/06 06:19:51;;;;;;;3.20;2.10;;;16.20;99.90;;;;;;5093663;28;20432;-58
2021/09/06 06:22:18;;;;;;;3.83;2.30;;;16.10;99.90;;;;;;5091704;28;20425;-57
2021/09/06 06:24:45;;;;;;;4.20;2.20;;;16.10;99.90;;;;;;5094502;28;20428;-58
2021/09/06 06:27:12;;;;;;;4.33;2.33;;;16.10;99.90;;;;;;5093915;28;20425;-58
2021/09/06 06:29:39;;;;;;;6.18;2.70;;;16.40;99.90;;;;;;5092723;28;20440;-58
2021/09/06 06:32:07;;;;;;;3.50;2.28;;;16.60;99.90;;;;;;5092617;28;20452;-57
2021/09/06 06:34:34;;;;;;;3.25;1.90;;;16.60;99.90;;;;;;5093740;28;20461;-57
2021/09/06 06:37:02;;;;;;;3.10;1.98;;;16.70;99.90;;;;;;5093239;28;20418;-57
2021/09/06 06:39:29;;;;;;;4.20;2.70;;;16.80;99.90;;;;;;5088580;28;20433;-57
2021/09/06 06:41:57;;;;;;;3.20;2.20;;;17.00;99.90;;;;;;5092723;28;20477;-58
2021/09/06 06:44:24;;;;;;;3.80;2.38;;;17.00;99.90;;;;;;5093804;28;20508;-57
2021/09/06 06:46:51;;;;;;;3.20;2.10;;;17.20;99.90;;;;;;5093259;28;20416;-58
2021/09/06 06:49:18;;;;;;;5.28;2.20;;;17.20;99.90;;;;;;5090782;28;20425;-58
2021/09/06 06:51:45;;;;;;;3.63;2.15;;;17.40;99.90;;;;;;5089218;28;20444;-59
2021/09/06 06:54:13;;;;;;;4.25;2.60;;;17.50;99.90;;;;;;5091080;28;20529;-59
2021/09/06 06:56:40;;;;;;;2.97;2.10;;;17.40;99.90;;;;;;5090450;28;20487;-60
2021/09/06 06:59:07;;;;;;;4.90;3.73;;;17.50;99.90;;;;;;5089825;28;20417;-60
2021/09/06 07:01:34;;;;;;;4.20;3.80;;;17.50;99.90;;;;;;5091377;28;20508;-58
2021/09/06 07:04:01;;;;;;;5.13;3.15;;;17.30;99.90;;;;;;5090590;28;20445;-58
2021/09/06 07:06:27;;;;;;;5.13;3.10;;;17.20;99.90;;;;;;5091609;28;20414;-59
2021/09/06 07:08:54;;;;;;;3.50;2.35;;;17.30;99.90;;;;;;5090380;28;20504;-59
2021/09/06 07:11:24;;;;;;;4.45;3.20;;;17.30;99.90;;;;;;5091118;28;20492;-59
2021/09/06 07:13:51;;;;;;;5.65;3.50;;;17.40;99.90;;;;;;5091307;28;20616;-59
2021/09/06 07:16:18;;;;;;;4.95;3.40;;;17.50;99.90;;;;;;5091995;28;20509;-58
2021/09/06 07:18:45;;;;;;;4.80;3.60;;;17.60;99.90;;;;;;5090749;28;20461;-59
2021/09/06 07:21:12;;;;;;;4.30;2.90;;;17.70;99.90;;;;;;5089059;28;20453;-62
2021/09/06 07:23:39;;;;;;;2.92;2.55;;;17.80;99.90;;;;;;5089939;28;21001;-57
2021/09/06 07:26:06;;;;;;;2.22;1.70;;;17.90;99.90;;;;;;5089134;28;20457;-61
2021/09/06 07:28:34;;;;;;;3.92;2.45;;;18.10;99.90;;;;;;5089347;28;20429;-60
2021/09/06 07:31:01;;;;;;;2.72;2.03;;;18.20;99.90;;;;;;5088561;28;20414;-59
2021/09/06 07:33:28;;;;;;;3.93;2.73;;;18.30;99.90;;;;;;5089537;28;20745;-59
2021/09/06 07:35:55;;;;;;;4.05;2.90;;;18.40;99.90;;;;;;5090030;28;20414;-59
2021/09/06 07:38:23;;;;;;;3.97;3.03;;;18.40;99.90;;;;;;5089906;28;20431;-58
2021/09/06 07:40:50;;;;;;;4.15;2.53;;;18.50;99.90;;;;;;5090378;28;20741;-58
2021/09/06 07:43:17;;;;;;;4.47;2.72;;;18.60;99.90;;;;;;5089802;28;20786;-57
2021/09/06 07:45:46;;;;;;;4.88;2.33;;;18.70;99.90;;;;;;5089336;28;20425;-57
2021/09/06 07:48:13;;;;;;;4.80;3.15;;;18.80;99.90;;;;;;5089157;28;20422;-57
2021/09/06 07:50:40;;;;;;;3.80;3.03;;;18.90;99.90;;;;;;5089403;28;20414;-57
2021/09/06 07:53:07;;;;;;;4.10;2.65;;;19.00;99.90;;;;;;5089266;28;20422;-57
2021/09/06 07:55:35;;;;;;;2.83;2.40;;;19.10;99.90;;;;;;5091411;28;20406;-58
2021/09/06 07:58:02;;;;;;;3.00;2.70;;;19.10;99.90;;;;;;5091932;28;20835;-58
2021/09/06 08:00:28;;;;;;;3.75;2.50;;;19.10;99.90;;;;;;5093319;28;20420;-59
2021/09/06 08:02:57;;;;;;;3.00;1.83;;;19.30;99.90;;;;;;5094289;28;20420;-58
2021/09/06 08:05:26;;;;;;;2.75;2.50;;;19.40;99.90;;;;;;5093178;28;20426;-59
2021/09/06 08:07:53;;;;;;;3.00;1.95;;;19.70;99.90;;;;;;5093706;28;20426;-59
2021/09/06 08:10:20;;;;;;;4.47;2.10;;;19.90;99.90;;;;;;5093141;28;20833;-60
2021/09/06 08:12:47;;;;;;;3.00;1.70;;;20.00;99.90;;;;;;5092516;28;20418;-59
2021/09/06 08:15:14;;;;;;;2.67;1.88;;;20.10;99.90;;;;;;5091949;28;20430;-59
2021/09/06 08:17:41;;;;;;;2.97;2.05;;;20.20;99.90;;;;;;5093491;28;20417;-59
2021/09/06 08:20:13;;;;;;;3.50;1.70;;;20.30;99.90;;;;;;5092360;28;20495;-59
2021/09/06 08:22:40;;;;;;;2.00;1.60;;;20.50;99.90;;;;;;5091798;28;20889;-58
2021/09/06 08:25:10;;;;;;;3.47;2.00;;;20.60;99.90;;;;;;5093492;28;20426;-58
2021/09/06 08:27:37;;;;;;;3.28;2.00;;;20.70;99.90;;;;;;5093115;28;20521;-58
2021/09/06 08:30:07;;;;;;;2.80;2.20;;;20.80;99.90;;;;;;5093466;28;20424;-58
2021/09/06 08:32:34;;;;;;;2.42;1.30;;;20.90;99.90;;;;;;5092257;28;20422;-59
2021/09/06 08:35:01;;;;;;;3.60;1.63;;;20.90;99.90;;;;;;5088153;28;20441;-58
2021/09/06 08:37:29;;;;;;;3.50;2.10;;;21.00;99.90;;;;;;5082384;28;20424;-58
2021/09/06 08:39:56;;;;;;;3.70;1.90;;;21.10;99.90;;;;;;5071180;28;20533;-59
2021/09/06 08:42:24;;;;;;;2.15;1.30;;;21.20;99.90;;;;;;5090463;28;20428;-58
2021/09/06 08:44:50;;;;;;;2.07;1.43;;;21.10;99.90;;;;;;5096086;28;20416;-59
2021/09/06 08:47:18;;;;;;;2.72;1.95;;;21.10;99.90;;;;;;5114164;28;20503;-58
2021/09/06 08:49:45;;;;;;;2.92;2.00;;;21.20;99.90;;;;;;5114844;28;20430;-59
2021/09/06 08:52:13;;;;;;;2.60;1.60;;;21.30;99.90;;;;;;5095645;28;20722;-58
2021/09/06 08:54:42;;;;;;;2.27;1.40;;;21.40;99.90;;;;;;5095448;28;20712;-58
2021/09/06 08:57:08;;;;;;;2.47;1.60;;;21.40;99.90;;;;;;5095130;28;20780;-58
2021/09/06 08:59:39;;;;;;;2.63;1.50;;;21.50;99.90;;;;;;5095494;28;20525;-58
2021/09/06 09:02:05;;;;;;;1.80;1.50;;;21.50;99.90;;;;;;5090734;28;20927;-58
2021/09/06 09:04:33;;;;;;;2.50;1.60;;;21.50;99.90;;;;;;5083041;28;20427;-59
2021/09/06 09:07:02;;;;;;;1.80;1.40;;;21.50;99.90;;;;;;5097690;28;20426;-57
2021/09/06 09:09:32;;;;;;;2.35;1.50;;;21.70;99.90;;;;;;5097176;28;20702;-57
2021/09/06 09:12:05;;;;;;;2.70;1.70;;;21.80;99.90;;;;;;5087720;28;20434;-58
2021/09/06 09:14:32;;;;;;;1.70;1.30;;;22.00;99.90;;;;;;5084236;28;20437;-58
2021/09/06 09:16:59;;;;;;;3.50;1.60;;;22.00;99.90;;;;;;5095223;28;20521;-58
2021/09/06 09:19:26;;;;;;;1.60;1.20;;;22.20;99.90;;;;;;5096085;28;20491;-58
2021/09/06 09:21:54;;;;;;;1.83;1.40;;;22.20;99.90;;;;;;5093318;28;20438;-58
2021/09/06 09:24:22;;;;;;;2.60;1.60;;;22.10;99.90;;;;;;5094352;28;20418;-59
2021/09/06 09:26:57;;;;;;;2.70;1.30;;;22.20;99.90;;;;;;5094769;28;20733;-59
2021/09/06 09:29:26;;;;;;;1.80;1.30;;;22.40;99.90;;;;;;5093034;28;20428;-58
2021/09/06 09:31:55;;;;;;;3.40;1.50;;;22.50;99.90;;;;;;5093378;28;20414;-58
2021/09/06 09:34:22;;;;;;;2.10;1.48;;;22.70;99.90;;;;;;5092451;28;20467;-57
2021/09/06 09:36:52;;;;;;;2.53;1.60;;;22.80;99.90;;;;;;5092816;28;20514;-58
2021/09/06 09:39:21;;;;;;;2.60;1.20;;;22.90;99.90;;;;;;5093742;28;20433;-58
2021/09/06 09:41:50;;;;;;;1.90;1.30;;;23.10;99.90;;;;;;5094465;28;20781;-58
2021/09/06 09:44:20;;;;;;;2.10;1.40;;;23.20;99.90;;;;;;5095083;28;20418;-57
2021/09/06 09:46:59;;;;;;;1.80;1.20;;;23.40;99.90;;;;;;5095823;28;20429;-58
2021/09/06 09:49:27;;;;;;;1.70;1.30;;;23.40;99.90;;;;;;5095040;28;20735;-61
2021/09/06 09:51:54;;;;;;;1.80;1.40;;;23.40;99.90;;;;;;5094024;28;20709;-59
2021/09/06 09:54:22;;;;;;;3.25;1.20;;;23.60;99.90;;;;;;5094595;28;20494;-60
2021/09/06 09:56:49;;;;;;;1.50;1.10;;;23.90;99.90;;;;;;5093985;28;20424;-59
2021/09/06 09:59:18;;;;;;;1.92;1.30;;;24.00;99.90;;;;;;5093369;28;20758;-58
2021/09/06 10:01:50;;;;;;;2.08;1.30;;;24.30;99.90;;;;;;5090468;28;20432;-59
2021/09/06 10:04:23;;;;;;;1.70;1.33;;;24.50;99.90;;;;;;5076432;28;20442;-60
2021/09/06 10:06:52;;;;;;;1.42;1.10;;;24.60;99.90;;;;;;5072578;28;20423;-59
2021/09/06 10:09:19;;;;;;;2.10;1.10;;;24.80;99.90;;;;;;5071712;28;20433;-58
2021/09/06 10:11:48;;;;;;;2.30;1.30;;;24.60;99.90;;;;;;5072038;28;20782;-58
2021/09/06 10:14:18;;;;;;;1.63;1.20;;;25.00;99.90;;;;;;5073464;28;20432;-60
2021/09/06 10:16:47;;;;;;;1.90;1.20;;;25.30;99.90;;;;;;5073141;28;20423;-59
2021/09/06 10:19:15;;;;;;;1.50;1.20;;;25.70;99.90;;;;;;5073159;28;20506;-59
2021/09/06 10:21:49;;;;;;;2.38;1.30;;;26.00;99.90;;;;;;5071219;28;20603;-59
2021/09/06 10:24:17;;;;;;;2.10;1.15;;;26.00;99.90;;;;;;5072869;28;20438;-59
2021/09/06 10:26:45;;;;;;;1.90;1.20;;;26.30;99.90;;;;;;5074309;28;20802;-59
2021/09/06 10:29:17;;;;;;;4.00;2.30;;;26.50;99.90;;;;;;5073727;28;20809;-60
2021/09/06 10:31:44;;;;;;;2.50;1.60;;;26.30;99.90;;;;;;5073867;28;20423;-60
2021/09/06 10:34:22;;;;;;;2.10;1.20;;;26.40;99.90;;;;;;5072618;28;20436;-59
2021/09/06 10:37:01;;;;;;;1.80;1.40;;;26.60;99.90;;;;;;5070877;28;20434;-60
2021/09/06 10:39:29;;;;;;;3.30;1.50;;;26.80;99.90;;;;;;5071154;28;20488;-59
2021/09/06 10:42:05;;;;;;;1.80;1.30;;;26.80;99.90;;;;;;5069247;28;20419;-59
2021/09/06 10:44:37;;;;;;;1.98;1.50;;;26.80;99.90;;;;;;5069368;28;20533;-59
2021/09/06 10:47:10;;;;;;;1.70;1.30;;;26.90;99.90;;;;;;5068098;28;20934;-60
2021/09/06 10:49:40;;;;;;;1.50;1.20;;;26.90;99.90;;;;;;5082630;28;20524;-59
2021/09/06 10:52:09;;;;;;;1.83;1.50;;;27.00;99.90;;;;;;5091033;28;20448;-59
2021/09/06 10:54:38;;;;;;;1.67;1.45;;;26.90;99.90;;;;;;5084529;22;20443;-58
2021/09/06 10:57:07;;;;;;;3.50;1.23;;;27.00;99.90;;;;;;5069474;28;20477;-59
2021/09/06 10:59:35;;;;;;;1.58;1.10;;;27.40;99.90;;;;;;5070018;28;20505;-59
2021/09/06 11:02:05;;;;;;;1.50;1.10;;;27.50;99.90;;;;;;5070490;28;20428;-58
2021/09/06 11:04:32;;;;;;;1.45;1.10;;;27.40;99.60;;;;;;5072210;28;20498;-59
2021/09/06 11:07:00;;;;;;;1.83;1.20;;;27.50;99.00;;;;;;5071635;28;20720;-57
2021/09/06 11:09:29;;;;;;;2.50;1.43;;;27.40;99.30;;;;;;5071842;28;20538;-58
2021/09/06 11:12:01;;;;;;;1.50;1.20;;;27.50;98.80;;;;;;5073941;28;20429;-58
2021/09/06 11:14:39;;;;;;;1.80;1.40;;;27.50;98.70;;;;;;5072247;28;20432;-59
2021/09/06 11:17:21;;;;;;;2.15;1.13;;;27.40;98.00;;;;;;5072423;28;20430;-60
2021/09/06 11:19:49;;;;;;;1.88;1.30;;;27.50;98.40;;;;;;5071384;28;20428;-58
2021/09/06 11:22:18;;;;;;;1.50;1.20;;;27.30;97.50;;;;;;5068518;28;20419;-58
2021/09/06 11:24:47;;;;;;;1.80;1.40;;;27.40;96.60;;;;;;5071606;28;20416;-58
2021/09/06 11:27:32;;;;;;;1.80;1.13;;;27.50;95.40;;;;;;5068354;28;20423;-59
2021/09/06 11:30:00;;;;;;;2.50;1.20;;;27.80;95.30;;;;;;5054129;28;20440;-59
2021/09/06 11:32:27;;;;;;;2.17;1.20;;;27.70;93.30;;;;;;5052566;28;20459;-59
2021/09/06 11:35:03;;;;;;;1.70;1.20;;;27.20;94.50;;;;;;5050273;28;20429;-59
2021/09/06 11:37:30;;;;;;;1.70;1.20;;;27.30;94.50;;;;;;5049681;28;20918;-59
2021/09/06 11:39:58;;;;;;;1.75;1.20;;;27.20;95.30;;;;;;5050865;28;20425;-59
2021/09/06 11:42:26;;;;;;;1.55;1.30;;;26.90;94.50;;;;;;5058933;28;20431;-58
2021/09/06 11:44:54;;;;;;;1.70;1.30;;;27.00;94.60;;;;;;5071531;28;20437;-57
2021/09/06 11:47:23;;;;;;;1.67;1.20;;;27.10;94.80;;;;;;5071336;28;20430;-58
2021/09/06 11:49:54;;;;;;;1.77;1.20;;;27.60;94.00;;;;;;5070200;28;20423;-58
2021/09/06 11:52:30;;;;;;;1.98;1.25;;;28.10;92.10;;;;;;5070054;28;20427;-58
2021/09/06 11:54:59;;;;;;;1.83;1.20;;;27.90;92.60;;;;;;5049249;28;20433;-58
2021/09/06 11:57:28;;;;;;;1.30;1.00;;;28.20;92.90;;;;;;5049694;28;20908;-57
2021/09/06 11:59:55;;;;;;;1.70;1.30;;;28.50;90.60;;;;;;5067496;28;20429;-58
2021/09/06 12:02:23;;;;;;;1.60;1.20;;;28.40;90.30;;;;;;5066717;28;20862;-57
2021/09/06 12:04:50;;;;;;;1.50;1.10;;;28.20;90.50;;;;;;5067462;28;20437;-57
2021/09/06 12:07:18;;;;;;;2.20;1.20;;;28.30;91.30;;;;;;5069044;28;20438;-57
2021/09/06 12:09:45;;;;;;;1.80;1.20;;;28.50;91.80;;;;;;5069034;28;20735;-57
2021/09/06 12:12:21;;;;;;;1.70;1.20;;;28.10;90.90;;;;;;5069969;28;20700;-57
2021/09/06 12:14:51;;;;;;;1.55;1.13;;;27.60;91.50;;;;;;5070548;28;20447;-57
2021/09/06 12:17:18;;;;;;;2.03;1.30;;;27.20;92.50;;;;;;5068782;28;20677;-57
2021/09/06 12:19:48;;;;;;;1.30;1.10;;;27.00;93.70;;;;;;5070873;28;20422;-58
2021/09/06 12:22:17;;;;;;;2.20;1.30;;;27.20;93.50;;;;;;5071562;28;20420;-58
2021/09/06 12:24:44;;;;;;;1.73;1.10;;;27.20;91.80;;;;;;5060612;28;20444;-57
2021/09/06 12:27:12;;;;;;;1.50;1.20;;;27.50;92.30;;;;;;5071055;28;21016;-58
2021/09/06 12:29:41;;;;;;;1.50;1.20;;;27.80;92.10;;;;;;5069868;28;20415;-58
2021/09/06 12:32:12;;;;;;;1.55;1.00;;;28.30;87.80;;;;;;5069105;28;20423;-58
2021/09/06 12:34:39;;;;;;;1.40;1.00;;;28.50;88.20;;;;;;5069155;28;20434;-58
2021/09/06 12:37:06;;;;;;;1.50;1.10;;;28.80;87.00;;;;;;5067483;28;20837;-58
2021/09/06 12:39:34;;;;;;;1.50;1.00;;;29.10;86.30;;;;;;5068692;28;20422;-58
2021/09/06 12:42:02;;;;;;;2.13;1.20;;;29.20;84.80;;;;;;5068919;28;20423;-58
2021/09/06 12:44:29;;;;;;;2.13;1.40;;;28.90;82.50;;;;;;5069710;28;20746;-58
2021/09/06 12:46:58;;;;;;;1.52;1.20;;;28.90;84.30;;;;;;5068449;28;20441;-57
2021/09/06 12:49:26;;;;;;;2.10;1.10;;;28.90;83.10;;;;;;5067250;28;20845;-58
2021/09/06 12:51:54;;;;;;;1.70;1.10;;;28.80;82.60;;;;;;5067002;28;20835;-60